Flugplatz Hockenheim (EDFX)

Hier findest Du alle Informationen zum Flugplatz Hockenheim (EDFX).

Informationen für Piloten zum Flugplatz Hockenheim

Hier findest Du alle relevanten Informationen, die Du als Pilot benötigst, um Hockenheim anzufliegen.

Flugplatz: Hockenheim ICAO-Code: EDFX
Frequenz Turm: 123,650 Mhz GAFOR Gebiet: 45
Frequenz Ground: 123,650 Mhz Mogas: nein
Platzrunde: SW 1000 ft Landegebühr: -
Platzhöhe: - Sunrise: 04:15 Uhr UTC
Pisten: 14/32 - 820 m x 30 m, GRAS Sunset: 18:45 Uhr UTC

Flugwetter am Flugplatz Hockenheim

Die METAR Information stammen aus EDFM (16.39 km entfernt).

METAR Code:
2020/08/14 09:20
EDFM 140920Z 16006KT CAVOK 24/18 Q1015

Temperatur: 25,1 °C Niederschlag: - Wind: 5,1 kt
Temperatur (min.): 22,2 °C Luftdruck: 1015 hPa Windrichtung: 190 °
Temperatur (max.): 26,1 °C Luftfeuchtigkeit: 57 % Bewölkung: 3/8

Flugschulen am Flugplatz Hockenheim

Am Flugplatz Hockenheim gibt es eine Flugschule.

Benachbarte Flugplätze und Flugschulen

Es gibt 17 weitere Flugplätze in einem Umkreis von 50 km um den Flugplatz Hockenheim.

Jetzt anmelden

Passwort vergessen

Umfrage Archiv

Wären Rettungsgeräte keine Pflicht mehr, würdet Ihr Euer UL trotzdem mit einem ausstatten?

Ja
83.5 %
Nein
16.5 %
Stimmen: 260 | Diskussion
Anzeige: Roland Aircraft
Statistik Alle Mitglieder

Aktuell sind 43 Besucher online, davon 1 Mitglied und 42 Gäste.


Mitglieder online:
skyfool 

Anzeige: VFR Sprechfunk Simulator


Anzeige: Pocket FMS